This is the latest recevied weather packets stored in our database for station/object KN4CCE-13. If no packets are shown the sender has not sent any weather packets the latest 10 day(s).
| Time | Temp. | Humidity | Pressure | Rain* | Wind** | Luminosity | Snow |
|---|---|---|---|---|---|---|---|
| 1777759226 | 12.78° C | 83% | 1011.8 hPa | 0 mm | - | 42 W/m² | - |
| 1777754727 | 13.33° C | 82% | 1011.5 hPa | 0 mm | - | 116 W/m² | - |
| 1777734006 | 11.67° C | 95% | 1013.7 hPa | 0.51 mm | - | 130 W/m² | - |
| 1777728607 | 11.11° C | 94% | 1013.2 hPa | 0.76 mm | - | 42 W/m² | - |
| 1777726823 | 10.56° C | 94% | 1013 hPa | 0.25 mm | - | 39 W/m² | - |
| 1777723211 | 10.56° C | 94% | 1012.5 hPa | 0.25 mm | - | 21 W/m² | - |
| 1777718724 | 11.11° C | 92% | 1013 hPa | 0 mm | - | 0 W/m² | - |
| 1777714226 | 11.67° C | 91% | 1013 hPa | 0 mm | - | 0 W/m² | - |
| 1777712422 | 11.11° C | 92% | 1012.8 hPa | 0 mm | - | 0 W/m² | - |
| 1777708807 | 11.11° C | 93% | 1012.2 hPa | 0 mm | - | 0 W/m² | - |
| 1777701616 | 11.67° C | 92% | 1012.3 hPa | 0 mm | - | 0 W/m² | - |
| 1777694428 | 11.67° C | 90% | 1013.2 hPa | 0 mm | - | 0 W/m² | - |
| 1777690818 | 11.67° C | 88% | 1013.4 hPa | 0 mm | - | 0 W/m² | - |
| 1777677319 | 12.78° C | 77% | 1012.7 hPa | 0 mm | - | 16 W/m² | - |
| 1777675511 | 13.33° C | 74% | 1012.7 hPa | 0 mm | - | 65 W/m² | - |
| 1777663814 | 16.11° C | 59% | 1014 hPa | 0 mm | - | 148 W/m² | - |
| 1777661105 | 16.11° C | 57% | 1014.5 hPa | 0 mm | - | 176 W/m² | - |
| 1777660205 | 16.67° C | 56% | 1014.6 hPa | 0 mm | - | 388 W/m² | - |
| 1777659306 | 16.67° C | 54% | 1015 hPa | 0 mm | - | 343 W/m² | - |
| 1777655707 | 17.22° C | 55% | 1015.4 hPa | 0 mm | - | 550 W/m² | - |
| 1777654806 | 16.11° C | 55% | 1015.4 hPa | 0 mm | - | 1134 W/m² | - |
| 1777648506 | 13.89° C | 58% | 1016.4 hPa | 0 mm | - | 195 W/m² | - |
| 1777638622 | 11.11° C | 65% | 1016.2 hPa | 0 mm | - | 35 W/m² | - |
| 1777632320 | 10.56° C | 72% | 1015.3 hPa | 0 mm | - | 12 W/m² | - |
| 1777631427 | 10.56° C | 71% | 1015.4 hPa | 0 mm | - | 0 W/m² | - |
* Rain latest hour (hover to see other rain measurements)
** Current wind speed in m/s (hover to see current wind gust speed)